(°C)
-3°
-4°
-4°
-3°
-3°
-3°
-3°
(°C)
-11°
-11°
-11°
-10°
-10°
-10°
-10°
DNy
DNy
DNy
DNy
DNy
DNy
DNy
(km/h)
22-42
22-42
22-42
22-43
22-44
23-44
24-46
(mm)
0
0
0
0
0
0
0
(%)
0
0
0
0
0
12
13

Napfelkelte

/ -35.7°
sun-icon
UV 0
09:32
17:06
(3°)
09:33
16:48

METAR 55.03°É 82.6°K (UNNT)-ért

Idő Feltételek Hőmérséklet/
Harmatpont
Szél Látási viszonyok Időjárás Felhők Légnyomás Módosítás Nyers
VFR -4°C / -7°C 220º 14kt >10km - Clouds and Visibility OK 1017 No Significant change. Runway 25: Slush, 51-100% contamination with 1mm, friction coefficient 0.45. Runway 16: Wet snow, 51-100% contamination with 4mm, friction coefficient 0.32. UNNT 032200Z 22007MPS CAVOK M04/M07 Q1017 R25/690145 R16/590432 NOSIG RMK QFE752/1003
VFR -3°C / -7°C 220º 16kt >10km - Clouds and Visibility OK 1017 No Significant change. Runway 25: Slush, 51-100% contamination with 1mm, friction coefficient 0.45. Runway 16: Wet snow, 51-100% contamination with 4mm, friction coefficient 0.32. UNNT 032130Z 22008MPS CAVOK M03/M07 Q1017 R25/690145 R16/590432 NOSIG RMK QFE752/1003
VFR -3°C / -7°C 230º 16kt >10km - Clouds and Visibility OK 1017 No Significant change. Runway 25: Slush, 51-100% contamination with 1mm, friction coefficient 0.45. Runway 16: Wet snow, 51-100% contamination with 4mm, friction coefficient 0.32. UNNT 032100Z 23008MPS CAVOK M03/M07 Q1017 R25/690145 R16/590432 NOSIG RMK QFE752/1003
VFR -2°C / -6°C 230º 17kt >10km - Clouds and Visibility OK 1016 No Significant change. Runway 25: Slush, 51-100% contamination with 1mm, friction coefficient 0.45. Runway 16: Wet snow, 51-100% contamination with 4mm, friction coefficient 0.32. UNNT 032030Z 23009MPS CAVOK M02/M06 Q1016 R25/690145 R16/590432 NOSIG RMK QFE752/1003
VFR -2°C / -6°C 230º 16kt >10km - Clouds and Visibility OK 1016 No Significant change. Runway 25: Slush, 51-100% contamination with 1mm, friction coefficient 0.45. Runway 16: Wet snow, 51-100% contamination with 4mm, friction coefficient 0.32. UNNT 032000Z 23008MPS CAVOK M02/M06 Q1016 R25/690145 R16/590432 NOSIG RMK QFE752/1002
VFR -2°C / -6°C 230º 12kt >10km - Clouds and Visibility OK 1015 No Significant change. Runway 25: Slush, 51-100% contamination with 1mm, friction coefficient 0.45. Runway 16: Wet snow, 51-100% contamination with 4mm, friction coefficient 0.32. UNNT 031930Z 23006MPS CAVOK M02/M06 Q1015 R25/690145 R16/590432 NOSIG RMK QFE752/1002
VFR -2°C / -6°C 230º 14kt >10km - Few Clouds 2900ft 1015 No Significant change. Runway 25: Slush, 51-100% contamination with 1mm, friction coefficient 0.45. Runway 16: Wet snow, 51-100% contamination with 4mm, friction coefficient 0.32. UNNT 031900Z 23007MPS 9999 FEW029 M02/M06 Q1015 R25/690145 R16/590432 NOSIG RMK QFE751/1001
VFR -1°C / -6°C 240º 16kt >10km - Scattered Clouds 2900ft 1015 No Significant change. Runway 25: Slush, 51-100% contamination with 1mm, friction coefficient 0.45. Runway 16: Wet snow, 51-100% contamination with 4mm, friction coefficient 0.32. UNNT 031830Z 24008MPS 9999 SCT029 M01/M06 Q1015 R25/690145 R16/590432 NOSIG RMK QFE751/1001
VFR -1°C / -5°C 250º 16kt >10km - Scattered Clouds 2900ft 1014 No Significant change. Runway 25: Slush, 51-100% contamination with 1mm, friction coefficient 0.45. Runway 16: Wet snow, 51-100% contamination with 4mm, friction coefficient 0.32. UNNT 031800Z 25008MPS 9999 SCT029 M01/M05 Q1014 R25/690145 R16/590432 NOSIG RMK QFE751/1001
MVFR 0°C / -4°C 250º 17kt >10km - Broken Clouds 2900ft 1013 No Significant change. Runway 25: Slush, 51-100% contamination with 1mm, friction coefficient 0.45. Runway 16: Wet snow, 51-100% contamination with 4mm, friction coefficient 0.32. UNNT 031730Z 25009MPS 9999 BKN029 M00/M04 Q1013 R25/690145 R16/590432 NOSIG RMK QFE750/1000
MVFR 0°C / -3°C 250º 17kt >10km - Broken Clouds 2900ft 1013 No Significant change. Runway 25: Slush, 51-100% contamination with 1mm, friction coefficient 0.45. Runway 16: Wet snow, 51-100% contamination with 4mm, friction coefficient 0.32. UNNT 031700Z 25009MPS 9999 BKN029 00/M03 Q1013 R25/690145 R16/590432 NOSIG RMK QFE749/0999
MVFR 0°C / -3°C 250º 17kt >10km - Broken Clouds 2400ft 1012 No Significant change. Runway 25: Slush, 51-100% contamination with 2mm, friction coefficient 0.37. Runway 16: Wet snow, 51-100% contamination with 4mm, friction coefficient 0.32. UNNT 031630Z 25009MPS 9999 BKN024 00/M03 Q1012 R25/690237 R16/590432 NOSIG RMK QFE749/0999
MVFR 1°C / -2°C 260º 19kt >10km - Broken Clouds 2300ft 1011 No Significant change. Runway 25: Slush, 51-100% contamination with 2mm, friction coefficient 0.37. Runway 16: Wet snow, 51-100% contamination with 4mm, friction coefficient 0.32. UNNT 031600Z 26010MPS 9999 BKN023 01/M02 Q1011 R25/690237 R16/590432 NOSIG RMK QFE749/0998
MVFR 1°C / -1°C 250º 16kt >10km - Few Clouds 1000ft
Broken Clouds 2400ft
1011 No Significant change. Runway 25: Slush, 51-100% contamination with 2mm, friction coefficient 0.37. Runway 16: Wet snow, 51-100% contamination with 4mm, friction coefficient 0.32. UNNT 031530Z 25008MPS 9999 FEW010 BKN024CB 01/M01 Q1011 R25/690237 R16/590432 NOSIG RMK QFE748/0997
MVFR 1°C / 0°C 250º 17kt >10km - Broken Clouds 1000ft
Overcast 2400ft
1010 No Significant change. Runway 25: Slush, 51-100% contamination with 3mm, friction coefficient 0.35. Runway 16: Wet snow, 51-100% contamination with 4mm, friction coefficient 0.32. UNNT 031500Z 25009MPS 9999 BKN010 OVC024CB 01/00 Q1010 R25/690335 R16/590432 NOSIG RMK QFE748/0997
MVFR 1°C / 0°C 260º 19kt >10km - Broken Clouds 1000ft
Overcast 2400ft
1010 No Significant change. Runway 25: Slush, 51-100% contamination with 3mm, friction coefficient 0.35. Runway 16: Wet snow, 51-100% contamination with 4mm, friction coefficient 0.32. UNNT 031430Z 26010MPS 9999 BKN010 OVC024CB 01/M00 Q1010 R25/690335 R16/590432 NOSIG RMK QFE747/0997
MVFR 1°C / 0°C 240º 14kt >10km - Scattered Clouds 900ft
Overcast 3000ft
1009 No Significant change. Runway 25: Slush, 51-100% contamination with 3mm, friction coefficient 0.35. Runway 16: Wet snow, 51-100% contamination with 4mm, friction coefficient 0.32. UNNT 031400Z 24007MPS 9999 SCT009 OVC030CB 01/00 Q1009 R25/690335 R16/590432 NOSIG RMK QFE747/0996
IFR 1°C / 0°C 240º 14kt 5000m Light Showers Snow 3.00mm precipitation Vertical Visibility of 0ft.
Overcast 3000ft
1008 No Significant change. Runway 25: Wet snow, 51-100% contamination with 2mm, friction coefficient 0.35. Runway 16: Wet snow, 51-100% contamination with 4mm, friction coefficient 0.32. UNNT 031330Z 24007MPS 5000 -SHSN BKN005 OVC030CB 01/00 Q1008 R25/590235 R16/590432 NOSIG RMK QFE746/0995
LIFR 1°C / 0°C 230º 14kt 5000m Light Showers Snow 3.00mm precipitation Vertical Visibility of 0ft.
Overcast 2300ft
1008 No Significant change. Runway 25: Wet snow, 51-100% contamination with 2mm, friction coefficient 0.35. Runway 16: Wet snow, 51-100% contamination with 4mm, friction coefficient 0.32. UNNT 031300Z 23007MPS 5000 -SHSN BKN004 OVC023CB 01/00 Q1008 R25/590235 R16/590432 NOSIG RMK QFE746/0995
MVFR 1°C / 0°C 220º 12kt 8000m Light Showers Snow 3.00mm precipitation Vertical Visibility of 0ft.
Overcast 2600ft
1007 No Significant change. Runway 25: Wet snow, 51-100% contamination with 2mm, friction coefficient 0.35. Runway 16: Wet snow, 51-100% contamination with 4mm, friction coefficient 0.32. UNNT 031230Z 22006MPS 8000 -SHSN SCT009 OVC026CB 01/00 Q1007 R25/590235 R16/590432 NOSIG RMK QFE746/0994
MVFR 1°C / 0°C 230º 12kt 8000m Light Showers Snow 3.00mm precipitation Vertical Visibility of 0ft.
Overcast 2600ft
1007 No Significant change. Runway 25: Wet snow, 51-100% contamination with 2mm, friction coefficient 0.35. Runway 16: Wet snow, 51-100% contamination with 4mm, friction coefficient 0.32. UNNT 031200Z 23006MPS 8000 -SHSN SCT009 OVC026CB 01/00 Q1007 R25/590235 R16/590432 NOSIG RMK QFE745/0994
MVFR 1°C / 0°C 220º 12kt >10km Light Snow 1.00mm precipitation Vertical Visibility of 0ft.
Overcast 2500ft
1007 No Significant change. Runway 25: Wet snow, 51-100% contamination with 2mm, friction coefficient 0.35. Runway 16: Wet snow, 51-100% contamination with 4mm, friction coefficient 0.32. UNNT 031130Z 22006MPS 9999 -SN SCT009 OVC025 01/00 Q1007 R25/590235 R16/590432 NOSIG RMK QFE745/0993
MVFR 1°C / 0°C 220º 12kt 9000m Light Snow 1.00mm precipitation Vertical Visibility of 0ft.
Overcast 1700ft
1006 No Significant change. Runway 25: Wet snow, 51-100% contamination with 2mm, friction coefficient 0.35. Runway 16: Wet snow, 51-100% contamination with 4mm, friction coefficient 0.32. UNNT 031100Z 22006MPS 9000 -SN SCT009 OVC017 01/00 Q1006 R25/590235 R16/590432 NOSIG RMK QFE745/0993
MVFR 1°C / 1°C 220º 12kt 9000m Light Snow 1.00mm precipitation Vertical Visibility of 0ft.
Overcast 1700ft
1006 No Significant change. Runway 25: Wet snow, 51-100% contamination with 2mm, friction coefficient 0.35. Runway 16: Wet snow, 51-100% contamination with 4mm, friction coefficient 0.32. UNNT 031030Z 22006MPS 9000 -SN SCT008 OVC017 01/01 Q1006 R25/590235 R16/590432 NOSIG RMK QFE745/0993

VFR

-4°C / -7°C

[Több]
Szél 220º 14kt
Látási viszonyok >10km
Időjárás -
Felhők Clouds and Visibility OK
Légnyomás 1017
Módosítás No Significant change. Runway 25: Slush, 51-100% contamination with 1mm, friction coefficient 0.45. Runway 16: Wet snow, 51-100% contamination with 4mm, friction coefficient 0.32.
Nyers UNNT 032200Z 22007MPS CAVOK M04/M07 Q1017 R25/690145 R16/590432 NOSIG RMK QFE752/1003

VFR

-3°C / -7°C

[Több]
Szél 220º 16kt
Látási viszonyok >10km
Időjárás -
Felhők Clouds and Visibility OK
Légnyomás 1017
Módosítás No Significant change. Runway 25: Slush, 51-100% contamination with 1mm, friction coefficient 0.45. Runway 16: Wet snow, 51-100% contamination with 4mm, friction coefficient 0.32.
Nyers UNNT 032130Z 22008MPS CAVOK M03/M07 Q1017 R25/690145 R16/590432 NOSIG RMK QFE752/1003

VFR

-3°C / -7°C

[Több]
Szél 230º 16kt
Látási viszonyok >10km
Időjárás -
Felhők Clouds and Visibility OK
Légnyomás 1017
Módosítás No Significant change. Runway 25: Slush, 51-100% contamination with 1mm, friction coefficient 0.45. Runway 16: Wet snow, 51-100% contamination with 4mm, friction coefficient 0.32.
Nyers UNNT 032100Z 23008MPS CAVOK M03/M07 Q1017 R25/690145 R16/590432 NOSIG RMK QFE752/1003

VFR

-2°C / -6°C

[Több]
Szél 230º 17kt
Látási viszonyok >10km
Időjárás -
Felhők Clouds and Visibility OK
Légnyomás 1016
Módosítás No Significant change. Runway 25: Slush, 51-100% contamination with 1mm, friction coefficient 0.45. Runway 16: Wet snow, 51-100% contamination with 4mm, friction coefficient 0.32.
Nyers UNNT 032030Z 23009MPS CAVOK M02/M06 Q1016 R25/690145 R16/590432 NOSIG RMK QFE752/1003

VFR

-2°C / -6°C

[Több]
Szél 230º 16kt
Látási viszonyok >10km
Időjárás -
Felhők Clouds and Visibility OK
Légnyomás 1016
Módosítás No Significant change. Runway 25: Slush, 51-100% contamination with 1mm, friction coefficient 0.45. Runway 16: Wet snow, 51-100% contamination with 4mm, friction coefficient 0.32.
Nyers UNNT 032000Z 23008MPS CAVOK M02/M06 Q1016 R25/690145 R16/590432 NOSIG RMK QFE752/1002

VFR

-2°C / -6°C

[Több]
Szél 230º 12kt
Látási viszonyok >10km
Időjárás -
Felhők Clouds and Visibility OK
Légnyomás 1015
Módosítás No Significant change. Runway 25: Slush, 51-100% contamination with 1mm, friction coefficient 0.45. Runway 16: Wet snow, 51-100% contamination with 4mm, friction coefficient 0.32.
Nyers UNNT 031930Z 23006MPS CAVOK M02/M06 Q1015 R25/690145 R16/590432 NOSIG RMK QFE752/1002

VFR

-2°C / -6°C

[Több]
Szél 230º 14kt
Látási viszonyok >10km
Időjárás -
Felhők Few Clouds 2900ft
Légnyomás 1015
Módosítás No Significant change. Runway 25: Slush, 51-100% contamination with 1mm, friction coefficient 0.45. Runway 16: Wet snow, 51-100% contamination with 4mm, friction coefficient 0.32.
Nyers UNNT 031900Z 23007MPS 9999 FEW029 M02/M06 Q1015 R25/690145 R16/590432 NOSIG RMK QFE751/1001

VFR

-1°C / -6°C

[Több]
Szél 240º 16kt
Látási viszonyok >10km
Időjárás -
Felhők Scattered Clouds 2900ft
Légnyomás 1015
Módosítás No Significant change. Runway 25: Slush, 51-100% contamination with 1mm, friction coefficient 0.45. Runway 16: Wet snow, 51-100% contamination with 4mm, friction coefficient 0.32.
Nyers UNNT 031830Z 24008MPS 9999 SCT029 M01/M06 Q1015 R25/690145 R16/590432 NOSIG RMK QFE751/1001

VFR

-1°C / -5°C

[Több]
Szél 250º 16kt
Látási viszonyok >10km
Időjárás -
Felhők Scattered Clouds 2900ft
Légnyomás 1014
Módosítás No Significant change. Runway 25: Slush, 51-100% contamination with 1mm, friction coefficient 0.45. Runway 16: Wet snow, 51-100% contamination with 4mm, friction coefficient 0.32.
Nyers UNNT 031800Z 25008MPS 9999 SCT029 M01/M05 Q1014 R25/690145 R16/590432 NOSIG RMK QFE751/1001

MVFR

0°C / -4°C

[Több]
Szél 250º 17kt
Látási viszonyok >10km
Időjárás -
Felhők Broken Clouds 2900ft
Légnyomás 1013
Módosítás No Significant change. Runway 25: Slush, 51-100% contamination with 1mm, friction coefficient 0.45. Runway 16: Wet snow, 51-100% contamination with 4mm, friction coefficient 0.32.
Nyers UNNT 031730Z 25009MPS 9999 BKN029 M00/M04 Q1013 R25/690145 R16/590432 NOSIG RMK QFE750/1000

MVFR

0°C / -3°C

[Több]
Szél 250º 17kt
Látási viszonyok >10km
Időjárás -
Felhők Broken Clouds 2900ft
Légnyomás 1013
Módosítás No Significant change. Runway 25: Slush, 51-100% contamination with 1mm, friction coefficient 0.45. Runway 16: Wet snow, 51-100% contamination with 4mm, friction coefficient 0.32.
Nyers UNNT 031700Z 25009MPS 9999 BKN029 00/M03 Q1013 R25/690145 R16/590432 NOSIG RMK QFE749/0999

MVFR

0°C / -3°C

[Több]
Szél 250º 17kt
Látási viszonyok >10km
Időjárás -
Felhők Broken Clouds 2400ft
Légnyomás 1012
Módosítás No Significant change. Runway 25: Slush, 51-100% contamination with 2mm, friction coefficient 0.37. Runway 16: Wet snow, 51-100% contamination with 4mm, friction coefficient 0.32.
Nyers UNNT 031630Z 25009MPS 9999 BKN024 00/M03 Q1012 R25/690237 R16/590432 NOSIG RMK QFE749/0999

MVFR

1°C / -2°C

[Több]
Szél 260º 19kt
Látási viszonyok >10km
Időjárás -
Felhők Broken Clouds 2300ft
Légnyomás 1011
Módosítás No Significant change. Runway 25: Slush, 51-100% contamination with 2mm, friction coefficient 0.37. Runway 16: Wet snow, 51-100% contamination with 4mm, friction coefficient 0.32.
Nyers UNNT 031600Z 26010MPS 9999 BKN023 01/M02 Q1011 R25/690237 R16/590432 NOSIG RMK QFE749/0998

MVFR

1°C / -1°C

[Több]
Szél 250º 16kt
Látási viszonyok >10km
Időjárás -
Felhők Few Clouds 1000ft
Broken Clouds 2400ft
Légnyomás 1011
Módosítás No Significant change. Runway 25: Slush, 51-100% contamination with 2mm, friction coefficient 0.37. Runway 16: Wet snow, 51-100% contamination with 4mm, friction coefficient 0.32.
Nyers UNNT 031530Z 25008MPS 9999 FEW010 BKN024CB 01/M01 Q1011 R25/690237 R16/590432 NOSIG RMK QFE748/0997

MVFR

1°C / 0°C

[Több]
Szél 250º 17kt
Látási viszonyok >10km
Időjárás -
Felhők Broken Clouds 1000ft
Overcast 2400ft
Légnyomás 1010
Módosítás No Significant change. Runway 25: Slush, 51-100% contamination with 3mm, friction coefficient 0.35. Runway 16: Wet snow, 51-100% contamination with 4mm, friction coefficient 0.32.
Nyers UNNT 031500Z 25009MPS 9999 BKN010 OVC024CB 01/00 Q1010 R25/690335 R16/590432 NOSIG RMK QFE748/0997

MVFR

1°C / 0°C

[Több]
Szél 260º 19kt
Látási viszonyok >10km
Időjárás -
Felhők Broken Clouds 1000ft
Overcast 2400ft
Légnyomás 1010
Módosítás No Significant change. Runway 25: Slush, 51-100% contamination with 3mm, friction coefficient 0.35. Runway 16: Wet snow, 51-100% contamination with 4mm, friction coefficient 0.32.
Nyers UNNT 031430Z 26010MPS 9999 BKN010 OVC024CB 01/M00 Q1010 R25/690335 R16/590432 NOSIG RMK QFE747/0997

MVFR

1°C / 0°C

[Több]
Szél 240º 14kt
Látási viszonyok >10km
Időjárás -
Felhők Scattered Clouds 900ft
Overcast 3000ft
Légnyomás 1009
Módosítás No Significant change. Runway 25: Slush, 51-100% contamination with 3mm, friction coefficient 0.35. Runway 16: Wet snow, 51-100% contamination with 4mm, friction coefficient 0.32.
Nyers UNNT 031400Z 24007MPS 9999 SCT009 OVC030CB 01/00 Q1009 R25/690335 R16/590432 NOSIG RMK QFE747/0996

IFR

1°C / 0°C

[Több]
Szél 240º 14kt
Látási viszonyok 5000m
Időjárás Light Showers Snow 3.00mm precipitation
Felhők Vertical Visibility of 0ft.
Overcast 3000ft
Légnyomás 1008
Módosítás No Significant change. Runway 25: Wet snow, 51-100% contamination with 2mm, friction coefficient 0.35. Runway 16: Wet snow, 51-100% contamination with 4mm, friction coefficient 0.32.
Nyers UNNT 031330Z 24007MPS 5000 -SHSN BKN005 OVC030CB 01/00 Q1008 R25/590235 R16/590432 NOSIG RMK QFE746/0995

LIFR

1°C / 0°C

[Több]
Szél 230º 14kt
Látási viszonyok 5000m
Időjárás Light Showers Snow 3.00mm precipitation
Felhők Vertical Visibility of 0ft.
Overcast 2300ft
Légnyomás 1008
Módosítás No Significant change. Runway 25: Wet snow, 51-100% contamination with 2mm, friction coefficient 0.35. Runway 16: Wet snow, 51-100% contamination with 4mm, friction coefficient 0.32.
Nyers UNNT 031300Z 23007MPS 5000 -SHSN BKN004 OVC023CB 01/00 Q1008 R25/590235 R16/590432 NOSIG RMK QFE746/0995

MVFR

1°C / 0°C

[Több]
Szél 220º 12kt
Látási viszonyok 8000m
Időjárás Light Showers Snow 3.00mm precipitation
Felhők Vertical Visibility of 0ft.
Overcast 2600ft
Légnyomás 1007
Módosítás No Significant change. Runway 25: Wet snow, 51-100% contamination with 2mm, friction coefficient 0.35. Runway 16: Wet snow, 51-100% contamination with 4mm, friction coefficient 0.32.
Nyers UNNT 031230Z 22006MPS 8000 -SHSN SCT009 OVC026CB 01/00 Q1007 R25/590235 R16/590432 NOSIG RMK QFE746/0994

MVFR

1°C / 0°C

[Több]
Szél 230º 12kt
Látási viszonyok 8000m
Időjárás Light Showers Snow 3.00mm precipitation
Felhők Vertical Visibility of 0ft.
Overcast 2600ft
Légnyomás 1007
Módosítás No Significant change. Runway 25: Wet snow, 51-100% contamination with 2mm, friction coefficient 0.35. Runway 16: Wet snow, 51-100% contamination with 4mm, friction coefficient 0.32.
Nyers UNNT 031200Z 23006MPS 8000 -SHSN SCT009 OVC026CB 01/00 Q1007 R25/590235 R16/590432 NOSIG RMK QFE745/0994

MVFR

1°C / 0°C

[Több]
Szél 220º 12kt
Látási viszonyok >10km
Időjárás Light Snow 1.00mm precipitation
Felhők Vertical Visibility of 0ft.
Overcast 2500ft
Légnyomás 1007
Módosítás No Significant change. Runway 25: Wet snow, 51-100% contamination with 2mm, friction coefficient 0.35. Runway 16: Wet snow, 51-100% contamination with 4mm, friction coefficient 0.32.
Nyers UNNT 031130Z 22006MPS 9999 -SN SCT009 OVC025 01/00 Q1007 R25/590235 R16/590432 NOSIG RMK QFE745/0993

MVFR

1°C / 0°C

[Több]
Szél 220º 12kt
Látási viszonyok 9000m
Időjárás Light Snow 1.00mm precipitation
Felhők Vertical Visibility of 0ft.
Overcast 1700ft
Légnyomás 1006
Módosítás No Significant change. Runway 25: Wet snow, 51-100% contamination with 2mm, friction coefficient 0.35. Runway 16: Wet snow, 51-100% contamination with 4mm, friction coefficient 0.32.
Nyers UNNT 031100Z 22006MPS 9000 -SN SCT009 OVC017 01/00 Q1006 R25/590235 R16/590432 NOSIG RMK QFE745/0993

MVFR

1°C / 1°C

[Több]
Szél 220º 12kt
Látási viszonyok 9000m
Időjárás Light Snow 1.00mm precipitation
Felhők Vertical Visibility of 0ft.
Overcast 1700ft
Légnyomás 1006
Módosítás No Significant change. Runway 25: Wet snow, 51-100% contamination with 2mm, friction coefficient 0.35. Runway 16: Wet snow, 51-100% contamination with 4mm, friction coefficient 0.32.
Nyers UNNT 031030Z 22006MPS 9000 -SN SCT008 OVC017 01/01 Q1006 R25/590235 R16/590432 NOSIG RMK QFE745/0993

TAF 55.03°É 82.6°K (UNNT)-ért

From till


From till Wind 210º 14kt. Gust 29kt. Visibility 8000m. Light Showers Snow . Broken Clouds 2000ft.
Temporarly from till Wind 250º 16kt. Gust 31kt.
Temporarly from till Wind 260º 12kt. Gust 25kt. Broken Clouds 500ft. Broken Clouds 1600ft.

Nyers: TAF UNNT 032000Z 0321/0421 21007G15MPS 8000 -SHSN BKN020CB TEMPO 0321/0403 25008G16MPS TEMPO 0403/0421 26006G13MPS BKN005 BKN016CB

Radarkép és ultrarövid távú csapadék-előrejelzés a következő helyhez: 55.03°É 82.6°K

Szitáló eső
Enyhe
Mérsékelt
Erős
Nagyon nehéz
Jégeső

A helyzetjelző helye: 55.03°É 82.6°K. Ez az animáció bemutatja a csapadékradart az elmúlt órára vonatkozóan, valamint előrejelzést az elkövetkező 1 órára. A szitáló eső vagy enyhe hóesés láthatatlan lehet a radar számára. A csapadék intenzitása színkóddal van jelölve, a világoskéktől a narancssárgáig.

Aktuális műholdas és esőképek ezen a helyen: 55.03°É 82.6°K

A helyszín jelölő a következő helyen van elhelyezve: 55.03°É 82.6°K. [Több]

A valós idejű műholdas kép ötvözi a nappali látható fényt az éjszakai infravörös sugárzással. Éjjel a kép nem sötét, mivel az infravörös sugárzás képes érzékelni a hőmérséklet-különbségeket. Sajnos az alacsony felhőket és a ködöt nehéz megkülönböztetni a talaj hőmérsékletétől, így az éjszaka folyamán szinte láthatatlanok lehetnek. A Meteosat európai műholdképei valós időben frissülnek minden 5 percben. A GOES-16/GOES-17 (Észak- és Dél-Amerika) és Himawari (Ázsia) képei 10 percenként frissülnek.

Minden jog fenntartva 2021 EUMETSAT / meteoblue. / Minden jog fenntartva 2021 meteoblue